Terminal Aerodrome Forecast
Issued by NWS

Home | Current Version | Previous Version | Text Only | Print | Product List | Glossary On
Versions: 1 2 3 4 5 6 7 8 9 10 11 12 13 14 15 16 17 18 19 20 21 22 23 24 25 26 27 28 29 30 31 32 33 34 35 36 37 38 39 40 41 42 43
000
FTUS41 KBOX 182346
TAFHYA
TAF
KHYA 182346Z 1900/1924 19010KT P6SM OVC050
     FM190300 20017G29KT P6SM -SHRA OVC030
     FM190700 20019G42KT P6SM VCSH OVC025 WS020/22045KT
     FM191200 20025G50KT 3SM -RA OVC008 WS020/21060KT
     FM191500 22022G43KT P6SM VCSH OVC008
     FM191800 24021G46KT P6SM SCT035=

USA.gov is the U.S. government's official web portal to all federal, state and local government web resources and services.